sensor_id;sensor_type;location;lat;lon;timestamp;P1;durP1;ratioP1;P2;durP2;ratioP2
7199;SDS011;3641;49.082;8.200;2022-09-27T00:01:08;6.75;;;2.20;;
7199;SDS011;3641;49.082;8.200;2022-09-27T00:03:36;3.92;;;1.50;;
7199;SDS011;3641;49.082;8.200;2022-09-27T00:06:05;2.22;;;1.65;;
7199;SDS011;3641;49.082;8.200;2022-09-27T00:08:34;1.95;;;1.50;;
7199;SDS011;3641;49.082;8.200;2022-09-27T00:11:02;3.53;;;1.50;;
7199;SDS011;3641;49.082;8.200;2022-09-27T00:13:31;2.25;;;1.60;;
7199;SDS011;3641;49.082;8.200;2022-09-27T00:15:58;3.65;;;1.70;;
7199;SDS011;3641;49.082;8.200;2022-09-27T00:18:27;3.13;;;1.50;;
7199;SDS011;3641;49.082;8.200;2022-09-27T00:20:53;3.67;;;1.58;;
7199;SDS011;3641;49.082;8.200;2022-09-27T00:23:20;3.70;;;1.70;;
7199;SDS011;3641;49.082;8.200;2022-09-27T00:25:55;2.55;;;1.42;;
7199;SDS011;3641;49.082;8.200;2022-09-27T00:28:23;2.22;;;1.75;;
7199;SDS011;3641;49.082;8.200;2022-09-27T00:30:51;5.70;;;1.40;;
7199;SDS011;3641;49.082;8.200;2022-09-27T00:33:18;2.15;;;1.20;;
7199;SDS011;3641;49.082;8.200;2022-09-27T00:35:45;3.67;;;1.60;;
7199;SDS011;3641;49.082;8.200;2022-09-27T00:38:12;3.40;;;2.33;;
7199;SDS011;3641;49.082;8.200;2022-09-27T00:40:38;3.55;;;1.63;;
7199;SDS011;3641;49.082;8.200;2022-09-27T00:43:09;2.00;;;1.35;;
7199;SDS011;3641;49.082;8.200;2022-09-27T00:45:41;2.97;;;1.30;;
7199;SDS011;3641;49.082;8.200;2022-09-27T00:48:14;2.72;;;1.52;;
7199;SDS011;3641;49.082;8.200;2022-09-27T00:50:44;1.98;;;1.25;;
7199;SDS011;3641;49.082;8.200;2022-09-27T00:53:16;4.18;;;1.60;;
7199;SDS011;3641;49.082;8.200;2022-09-27T00:55:47;4.03;;;1.63;;
7199;SDS011;3641;49.082;8.200;2022-09-27T00:58:17;7.75;;;1.67;;
7199;SDS011;3641;49.082;8.200;2022-09-27T01:00:48;5.28;;;1.80;;
7199;SDS011;3641;49.082;8.200;2022-09-27T01:03:22;4.03;;;1.42;;
7199;SDS011;3641;49.082;8.200;2022-09-27T01:05:53;6.97;;;1.67;;
7199;SDS011;3641;49.082;8.200;2022-09-27T01:08:20;4.88;;;1.73;;
7199;SDS011;3641;49.082;8.200;2022-09-27T01:10:50;3.38;;;1.95;;
7199;SDS011;3641;49.082;8.200;2022-09-27T01:13:26;4.00;;;1.60;;
7199;SDS011;3641;49.082;8.200;2022-09-27T01:16:01;3.17;;;1.60;;
7199;SDS011;3641;49.082;8.200;2022-09-27T01:18:38;4.00;;;1.55;;
7199;SDS011;3641;49.082;8.200;2022-09-27T01:21:36;3.58;;;1.50;;
7199;SDS011;3641;49.082;8.200;2022-09-27T01:24:19;3.85;;;1.70;;
7199;SDS011;3641;49.082;8.200;2022-09-27T01:27:36;3.58;;;1.80;;
7199;SDS011;3641;49.082;8.200;2022-09-27T01:30:22;3.28;;;1.75;;
7199;SDS011;3641;49.082;8.200;2022-09-27T01:32:54;4.97;;;1.50;;
7199;SDS011;3641;49.082;8.200;2022-09-27T01:35:33;5.63;;;1.50;;
7199;SDS011;3641;49.082;8.200;2022-09-27T01:38:06;4.40;;;1.48;;
7199;SDS011;3641;49.082;8.200;2022-09-27T01:40:41;3.33;;;1.42;;
7199;SDS011;3641;49.082;8.200;2022-09-27T01:43:15;5.57;;;1.30;;
7199;SDS011;3641;49.082;8.200;2022-09-27T01:45:49;5.60;;;1.88;;
7199;SDS011;3641;49.082;8.200;2022-09-27T01:48:21;4.38;;;1.50;;
7199;SDS011;3641;49.082;8.200;2022-09-27T01:50:50;3.25;;;1.30;;
7199;SDS011;3641;49.082;8.200;2022-09-27T01:53:20;4.65;;;1.48;;
7199;SDS011;3641;49.082;8.200;2022-09-27T01:55:50;5.32;;;1.55;;
7199;SDS011;3641;49.082;8.200;2022-09-27T01:58:21;3.60;;;1.50;;
7199;SDS011;3641;49.082;8.200;2022-09-27T02:00:53;4.20;;;1.67;;
7199;SDS011;3641;49.082;8.200;2022-09-27T02:03:22;5.15;;;1.52;;
7199;SDS011;3641;49.082;8.200;2022-09-27T02:05:52;6.13;;;1.90;;
7199;SDS011;3641;49.082;8.200;2022-09-27T02:08:24;3.45;;;1.75;;
7199;SDS011;3641;49.082;8.200;2022-09-27T02:10:56;4.70;;;1.70;;
7199;SDS011;3641;49.082;8.200;2022-09-27T02:13:30;3.70;;;1.45;;
7199;SDS011;3641;49.082;8.200;2022-09-27T02:16:05;4.32;;;1.63;;
7199;SDS011;3641;49.082;8.200;2022-09-27T02:18:46;8.32;;;2.50;;
7199;SDS011;3641;49.082;8.200;2022-09-27T02:21:18;7.85;;;2.50;;
7199;SDS011;3641;49.082;8.200;2022-09-27T02:23:47;8.05;;;1.83;;
7199;SDS011;3641;49.082;8.200;2022-09-27T02:26:19;6.43;;;2.03;;
7199;SDS011;3641;49.082;8.200;2022-09-27T02:28:51;5.43;;;1.77;;
7199;SDS011;3641;49.082;8.200;2022-09-27T02:31:26;7.30;;;2.10;;
7199;SDS011;3641;49.082;8.200;2022-09-27T02:33:54;10.07;;;1.85;;
7199;SDS011;3641;49.082;8.200;2022-09-27T02:36:25;8.98;;;1.98;;
7199;SDS011;3641;49.082;8.200;2022-09-27T02:38:53;7.13;;;2.28;;
7199;SDS011;3641;49.082;8.200;2022-09-27T02:41:21;6.93;;;2.03;;
7199;SDS011;3641;49.082;8.200;2022-09-27T02:43:49;10.13;;;2.50;;
7199;SDS011;3641;49.082;8.200;2022-09-27T02:46:26;11.40;;;2.30;;
7199;SDS011;3641;49.082;8.200;2022-09-27T02:49:10;9.95;;;2.58;;
7199;SDS011;3641;49.082;8.200;2022-09-27T02:51:51;8.60;;;2.85;;
7199;SDS011;3641;49.082;8.200;2022-09-27T02:54:28;9.05;;;2.40;;
7199;SDS011;3641;49.082;8.200;2022-09-27T02:57:10;5.88;;;2.10;;
7199;SDS011;3641;49.082;8.200;2022-09-27T02:59:48;7.00;;;2.65;;
7199;SDS011;3641;49.082;8.200;2022-09-27T03:02:22;4.18;;;2.30;;
7199;SDS011;3641;49.082;8.200;2022-09-27T03:04:58;9.00;;;2.80;;
7199;SDS011;3641;49.082;8.200;2022-09-27T03:07:27;8.63;;;2.90;;
7199;SDS011;3641;49.082;8.200;2022-09-27T03:09:55;8.77;;;2.75;;
7199;SDS011;3641;49.082;8.200;2022-09-27T03:12:21;7.22;;;2.75;;
7199;SDS011;3641;49.082;8.200;2022-09-27T03:14:50;8.35;;;3.10;;
7199;SDS011;3641;49.082;8.200;2022-09-27T03:17:18;7.70;;;2.67;;
7199;SDS011;3641;49.082;8.200;2022-09-27T03:19:46;10.55;;;2.65;;
7199;SDS011;3641;49.082;8.200;2022-09-27T03:22:12;7.60;;;2.60;;
7199;SDS011;3641;49.082;8.200;2022-09-27T03:24:39;9.55;;;2.72;;
7199;SDS011;3641;49.082;8.200;2022-09-27T03:27:06;11.15;;;2.88;;
7199;SDS011;3641;49.082;8.200;2022-09-27T03:29:34;8.68;;;2.47;;
7199;SDS011;3641;49.082;8.200;2022-09-27T03:32:01;12.55;;;3.22;;
7199;SDS011;3641;49.082;8.200;2022-09-27T03:34:28;7.70;;;2.70;;
7199;SDS011;3641;49.082;8.200;2022-09-27T03:36:55;9.70;;;2.38;;
7199;SDS011;3641;49.082;8.200;2022-09-27T03:39:22;8.82;;;2.60;;
7199;SDS011;3641;49.082;8.200;2022-09-27T03:41:48;8.23;;;2.42;;
7199;SDS011;3641;49.082;8.200;2022-09-27T03:44:15;6.50;;;2.10;;
7199;SDS011;3641;49.082;8.200;2022-09-27T03:46:41;7.32;;;2.35;;
7199;SDS011;3641;49.082;8.200;2022-09-27T03:49:08;9.05;;;2.65;;
7199;SDS011;3641;49.082;8.200;2022-09-27T03:51:34;9.02;;;2.67;;
7199;SDS011;3641;49.082;8.200;2022-09-27T03:54:03;10.00;;;2.80;;
7199;SDS011;3641;49.082;8.200;2022-09-27T03:56:29;8.00;;;3.08;;
7199;SDS011;3641;49.082;8.200;2022-09-27T03:58:56;9.32;;;2.88;;
7199;SDS011;3641;49.082;8.200;2022-09-27T04:01:22;10.65;;;2.85;;
7199;SDS011;3641;49.082;8.200;2022-09-27T04:03:50;10.80;;;3.10;;
7199;SDS011;3641;49.082;8.200;2022-09-27T04:06:16;8.18;;;2.50;;
7199;SDS011;3641;49.082;8.200;2022-09-27T04:08:43;10.48;;;2.33;;
7199;SDS011;3641;49.082;8.200;2022-09-27T04:11:11;9.65;;;2.67;;
7199;SDS011;3641;49.082;8.200;2022-09-27T04:13:39;11.32;;;2.58;;
7199;SDS011;3641;49.082;8.200;2022-09-27T04:16:05;7.45;;;2.60;;
7199;SDS011;3641;49.082;8.200;2022-09-27T04:18:32;10.30;;;2.90;;
7199;SDS011;3641;49.082;8.200;2022-09-27T04:20:59;6.95;;;2.20;;
7199;SDS011;3641;49.082;8.200;2022-09-27T04:23:26;5.70;;;2.20;;
7199;SDS011;3641;49.082;8.200;2022-09-27T04:25:53;7.60;;;2.72;;
7199;SDS011;3641;49.082;8.200;2022-09-27T04:28:21;7.30;;;2.55;;
7199;SDS011;3641;49.082;8.200;2022-09-27T04:30:47;9.38;;;2.50;;
7199;SDS011;3641;49.082;8.200;2022-09-27T04:33:14;8.02;;;2.60;;
7199;SDS011;3641;49.082;8.200;2022-09-27T04:35:41;6.47;;;2.40;;
7199;SDS011;3641;49.082;8.200;2022-09-27T04:38:25;10.68;;;2.72;;
7199;SDS011;3641;49.082;8.200;2022-09-27T04:40:51;6.72;;;2.55;;
7199;SDS011;3641;49.082;8.200;2022-09-27T04:43:18;10.65;;;2.60;;
7199;SDS011;3641;49.082;8.200;2022-09-27T04:45:46;4.93;;;2.22;;
7199;SDS011;3641;49.082;8.200;2022-09-27T04:48:12;5.15;;;2.10;;
7199;SDS011;3641;49.082;8.200;2022-09-27T04:50:39;3.88;;;1.80;;
7199;SDS011;3641;49.082;8.200;2022-09-27T04:53:05;4.05;;;1.65;;
7199;SDS011;3641;49.082;8.200;2022-09-27T04:55:33;3.80;;;1.13;;
7199;SDS011;3641;49.082;8.200;2022-09-27T04:57:59;4.35;;;1.50;;
7199;SDS011;3641;49.082;8.200;2022-09-27T05:00:26;2.20;;;1.10;;
7199;SDS011;3641;49.082;8.200;2022-09-27T05:02:54;2.70;;;1.33;;
7199;SDS011;3641;49.082;8.200;2022-09-27T05:05:21;4.32;;;1.45;;
7199;SDS011;3641;49.082;8.200;2022-09-27T05:07:47;4.72;;;1.30;;
7199;SDS011;3641;49.082;8.200;2022-09-27T05:10:14;4.75;;;1.77;;
7199;SDS011;3641;49.082;8.200;2022-09-27T05:12:41;3.75;;;1.52;;
7199;SDS011;3641;49.082;8.200;2022-09-27T05:15:08;5.53;;;1.75;;
7199;SDS011;3641;49.082;8.200;2022-09-27T05:17:35;7.90;;;1.73;;
7199;SDS011;3641;49.082;8.200;2022-09-27T05:20:03;4.03;;;1.40;;
7199;SDS011;3641;49.082;8.200;2022-09-27T05:22:30;7.13;;;1.70;;
7199;SDS011;3641;49.082;8.200;2022-09-27T05:24:56;5.32;;;1.85;;
7199;SDS011;3641;49.082;8.200;2022-09-27T05:27:23;4.43;;;1.60;;
7199;SDS011;3641;49.082;8.200;2022-09-27T05:29:49;4.38;;;1.60;;
7199;SDS011;3641;49.082;8.200;2022-09-27T05:32:16;5.20;;;1.70;;
7199;SDS011;3641;49.082;8.200;2022-09-27T05:34:42;6.28;;;1.58;;
7199;SDS011;3641;49.082;8.200;2022-09-27T05:37:10;4.05;;;1.50;;
7199;SDS011;3641;49.082;8.200;2022-09-27T05:39:37;4.97;;;1.67;;
7199;SDS011;3641;49.082;8.200;2022-09-27T05:42:03;8.73;;;1.70;;
7199;SDS011;3641;49.082;8.200;2022-09-27T05:44:32;9.30;;;2.83;;
7199;SDS011;3641;49.082;8.200;2022-09-27T05:46:59;7.47;;;2.03;;
7199;SDS011;3641;49.082;8.200;2022-09-27T05:49:28;5.32;;;1.40;;
7199;SDS011;3641;49.082;8.200;2022-09-27T05:51:54;4.78;;;2.63;;
7199;SDS011;3641;49.082;8.200;2022-09-27T05:54:22;3.25;;;1.50;;
7199;SDS011;3641;49.082;8.200;2022-09-27T05:56:49;4.07;;;1.67;;
7199;SDS011;3641;49.082;8.200;2022-09-27T05:59:20;2.80;;;1.30;;
7199;SDS011;3641;49.082;8.200;2022-09-27T06:01:46;6.50;;;1.70;;
7199;SDS011;3641;49.082;8.200;2022-09-27T06:04:13;3.67;;;1.70;;
7199;SDS011;3641;49.082;8.200;2022-09-27T06:06:39;5.22;;;1.55;;
7199;SDS011;3641;49.082;8.200;2022-09-27T06:09:08;3.97;;;1.27;;
7199;SDS011;3641;49.082;8.200;2022-09-27T06:11:37;5.70;;;1.30;;
7199;SDS011;3641;49.082;8.200;2022-09-27T06:14:03;3.45;;;1.48;;
7199;SDS011;3641;49.082;8.200;2022-09-27T06:16:30;3.75;;;1.42;;
7199;SDS011;3641;49.082;8.200;2022-09-27T06:18:57;3.38;;;1.42;;
7199;SDS011;3641;49.082;8.200;2022-09-27T06:21:23;4.63;;;1.90;;
7199;SDS011;3641;49.082;8.200;2022-09-27T06:23:52;3.30;;;1.52;;
7199;SDS011;3641;49.082;8.200;2022-09-27T06:26:19;2.97;;;1.48;;
7199;SDS011;3641;49.082;8.200;2022-09-27T06:28:47;6.93;;;1.77;;
7199;SDS011;3641;49.082;8.200;2022-09-27T06:31:15;3.08;;;1.55;;
7199;SDS011;3641;49.082;8.200;2022-09-27T06:33:41;3.42;;;1.70;;
7199;SDS011;3641;49.082;8.200;2022-09-27T06:36:08;4.07;;;1.70;;
7199;SDS011;3641;49.082;8.200;2022-09-27T06:38:35;3.15;;;1.27;;
7199;SDS011;3641;49.082;8.200;2022-09-27T06:41:01;3.17;;;1.38;;
7199;SDS011;3641;49.082;8.200;2022-09-27T06:43:30;4.20;;;1.73;;
7199;SDS011;3641;49.082;8.200;2022-09-27T06:45:59;5.22;;;1.83;;
7199;SDS011;3641;49.082;8.200;2022-09-27T06:48:29;5.85;;;1.42;;
7199;SDS011;3641;49.082;8.200;2022-09-27T06:50:55;8.18;;;1.85;;
7199;SDS011;3641;49.082;8.200;2022-09-27T06:53:22;4.25;;;1.60;;
7199;SDS011;3641;49.082;8.200;2022-09-27T06:55:50;4.40;;;1.40;;
7199;SDS011;3641;49.082;8.200;2022-09-27T06:58:17;2.50;;;1.67;;
7199;SDS011;3641;49.082;8.200;2022-09-27T07:01:02;8.18;;;1.52;;
7199;SDS011;3641;49.082;8.200;2022-09-27T07:03:29;6.05;;;2.58;;
7199;SDS011;3641;49.082;8.200;2022-09-27T07:05:59;6.05;;;1.83;;
7199;SDS011;3641;49.082;8.200;2022-09-27T07:08:27;7.40;;;1.75;;
7199;SDS011;3641;49.082;8.200;2022-09-27T07:10:55;4.90;;;1.60;;
7199;SDS011;3641;49.082;8.200;2022-09-27T07:13:26;3.53;;;1.42;;
7199;SDS011;3641;49.082;8.200;2022-09-27T07:15:55;2.95;;;1.20;;
7199;SDS011;3641;49.082;8.200;2022-09-27T07:18:23;3.17;;;1.13;;
7199;SDS011;3641;49.082;8.200;2022-09-27T07:20:50;4.53;;;1.70;;
7199;SDS011;3641;49.082;8.200;2022-09-27T07:23:16;4.40;;;1.67;;
7199;SDS011;3641;49.082;8.200;2022-09-27T07:25:43;7.65;;;2.00;;
7199;SDS011;3641;49.082;8.200;2022-09-27T07:28:12;4.63;;;1.80;;
7199;SDS011;3641;49.082;8.200;2022-09-27T07:30:40;4.47;;;1.70;;
7199;SDS011;3641;49.082;8.200;2022-09-27T07:33:07;3.08;;;1.30;;
7199;SDS011;3641;49.082;8.200;2022-09-27T07:35:37;4.00;;;1.25;;
7199;SDS011;3641;49.082;8.200;2022-09-27T07:38:05;4.15;;;1.13;;
7199;SDS011;3641;49.082;8.200;2022-09-27T07:40:33;1.80;;;1.10;;
7199;SDS011;3641;49.082;8.200;2022-09-27T07:43:01;6.13;;;1.70;;
7199;SDS011;3641;49.082;8.200;2022-09-27T07:45:29;1.35;;;1.20;;
7199;SDS011;3641;49.082;8.200;2022-09-27T07:47:56;1.88;;;1.10;;
7199;SDS011;3641;49.082;8.200;2022-09-27T07:50:23;3.65;;;1.33;;
7199;SDS011;3641;49.082;8.200;2022-09-27T07:52:51;3.08;;;1.45;;
7199;SDS011;3641;49.082;8.200;2022-09-27T07:55:18;5.18;;;1.70;;
7199;SDS011;3641;49.082;8.200;2022-09-27T07:57:44;6.55;;;1.75;;
7199;SDS011;3641;49.082;8.200;2022-09-27T08:00:12;5.90;;;1.60;;
7199;SDS011;3641;49.082;8.200;2022-09-27T08:02:40;3.50;;;1.80;;
7199;SDS011;3641;49.082;8.200;2022-09-27T08:05:07;4.22;;;1.83;;
7199;SDS011;3641;49.082;8.200;2022-09-27T08:07:35;3.17;;;1.55;;
7199;SDS011;3641;49.082;8.200;2022-09-27T08:10:05;5.45;;;1.70;;
7199;SDS011;3641;49.082;8.200;2022-09-27T08:12:32;4.00;;;1.50;;
7199;SDS011;3641;49.082;8.200;2022-09-27T08:14:59;7.70;;;2.28;;
7199;SDS011;3641;49.082;8.200;2022-09-27T08:17:26;3.88;;;1.92;;
7199;SDS011;3641;49.082;8.200;2022-09-27T08:19:53;5.82;;;1.92;;
7199;SDS011;3641;49.082;8.200;2022-09-27T08:22:20;3.30;;;1.42;;
7199;SDS011;3641;49.082;8.200;2022-09-27T08:24:47;4.68;;;1.92;;
7199;SDS011;3641;49.082;8.200;2022-09-27T08:27:15;6.35;;;1.67;;
7199;SDS011;3641;49.082;8.200;2022-09-27T08:29:42;3.72;;;1.45;;
7199;SDS011;3641;49.082;8.200;2022-09-27T08:32:09;8.05;;;2.42;;
7199;SDS011;3641;49.082;8.200;2022-09-27T08:34:36;4.88;;;1.90;;
7199;SDS011;3641;49.082;8.200;2022-09-27T08:37:03;6.22;;;2.25;;
7199;SDS011;3641;49.082;8.200;2022-09-27T08:39:30;7.57;;;1.92;;
7199;SDS011;3641;49.082;8.200;2022-09-27T08:41:59;5.97;;;2.42;;
7199;SDS011;3641;49.082;8.200;2022-09-27T08:44:35;6.60;;;2.40;;
7199;SDS011;3641;49.082;8.200;2022-09-27T08:47:13;5.88;;;2.38;;
7199;SDS011;3641;49.082;8.200;2022-09-27T08:49:42;5.60;;;1.98;;
7199;SDS011;3641;49.082;8.200;2022-09-27T08:52:16;4.20;;;2.13;;
7199;SDS011;3641;49.082;8.200;2022-09-27T08:54:45;6.13;;;2.50;;
7199;SDS011;3641;49.082;8.200;2022-09-27T08:57:13;7.75;;;2.70;;
7199;SDS011;3641;49.082;8.200;2022-09-27T08:59:42;5.20;;;2.45;;
7199;SDS011;3641;49.082;8.200;2022-09-27T09:02:15;6.60;;;2.88;;
7199;SDS011;3641;49.082;8.200;2022-09-27T09:04:44;8.73;;;2.92;;
7199;SDS011;3641;49.082;8.200;2022-09-27T09:07:15;5.45;;;2.90;;
7199;SDS011;3641;49.082;8.200;2022-09-27T09:09:52;6.35;;;2.55;;
7199;SDS011;3641;49.082;8.200;2022-09-27T09:12:29;9.88;;;3.10;;
7199;SDS011;3641;49.082;8.200;2022-09-27T09:15:16;8.32;;;2.97;;
7199;SDS011;3641;49.082;8.200;2022-09-27T09:18:00;6.47;;;3.45;;
7199;SDS011;3641;49.082;8.200;2022-09-27T09:20:39;6.28;;;3.47;;
7199;SDS011;3641;49.082;8.200;2022-09-27T09:23:24;9.50;;;3.53;;
7199;SDS011;3641;49.082;8.200;2022-09-27T09:26:03;12.02;;;3.80;;
7199;SDS011;3641;49.082;8.200;2022-09-27T09:28:44;8.05;;;3.38;;
7199;SDS011;3641;49.082;8.200;2022-09-27T09:31:24;7.13;;;3.20;;
7199;SDS011;3641;49.082;8.200;2022-09-27T09:33:58;8.57;;;3.40;;
7199;SDS011;3641;49.082;8.200;2022-09-27T09:36:31;9.68;;;3.70;;
7199;SDS011;3641;49.082;8.200;2022-09-27T09:39:03;9.00;;;3.67;;
7199;SDS011;3641;49.082;8.200;2022-09-27T09:41:35;8.25;;;3.50;;
7199;SDS011;3641;49.082;8.200;2022-09-27T09:45:04;8.18;;;3.47;;
7199;SDS011;3641;49.082;8.200;2022-09-27T09:47:43;8.75;;;3.55;;
7199;SDS011;3641;49.082;8.200;2022-09-27T09:50:14;10.68;;;3.20;;
7199;SDS011;3641;49.082;8.200;2022-09-27T09:52:45;7.40;;;3.75;;
7199;SDS011;3641;49.082;8.200;2022-09-27T09:55:17;8.20;;;3.83;;
7199;SDS011;3641;49.082;8.200;2022-09-27T09:57:49;7.07;;;3.50;;
7199;SDS011;3641;49.082;8.200;2022-09-27T10:00:25;11.80;;;3.83;;
7199;SDS011;3641;49.082;8.200;2022-09-27T10:02:54;9.50;;;3.55;;
7199;SDS011;3641;49.082;8.200;2022-09-27T10:05:24;8.38;;;3.45;;
7199;SDS011;3641;49.082;8.200;2022-09-27T10:07:52;7.53;;;4.00;;
7199;SDS011;3641;49.082;8.200;2022-09-27T10:10:22;8.27;;;4.03;;
7199;SDS011;3641;49.082;8.200;2022-09-27T10:12:48;7.60;;;3.67;;
7199;SDS011;3641;49.082;8.200;2022-09-27T10:15:17;8.63;;;4.10;;
7199;SDS011;3641;49.082;8.200;2022-09-27T10:17:45;6.55;;;4.07;;
7199;SDS011;3641;49.082;8.200;2022-09-27T10:20:22;10.98;;;4.75;;
7199;SDS011;3641;49.082;8.200;2022-09-27T10:22:52;8.05;;;4.13;;
7199;SDS011;3641;49.082;8.200;2022-09-27T10:25:22;10.60;;;4.65;;
7199;SDS011;3641;49.082;8.200;2022-09-27T10:27:50;12.57;;;3.88;;
7199;SDS011;3641;49.082;8.200;2022-09-27T10:30:20;8.52;;;3.80;;
7199;SDS011;3641;49.082;8.200;2022-09-27T10:32:49;5.05;;;2.75;;
7199;SDS011;3641;49.082;8.200;2022-09-27T10:35:33;9.48;;;3.45;;
7199;SDS011;3641;49.082;8.200;2022-09-27T10:38:15;6.10;;;2.63;;
7199;SDS011;3641;49.082;8.200;2022-09-27T10:40:47;5.07;;;2.80;;
7199;SDS011;3641;49.082;8.200;2022-09-27T10:43:24;5.68;;;2.47;;
7199;SDS011;3641;49.082;8.200;2022-09-27T10:46:00;3.70;;;1.90;;
7199;SDS011;3641;49.082;8.200;2022-09-27T10:48:31;3.75;;;2.13;;
7199;SDS011;3641;49.082;8.200;2022-09-27T10:50:59;3.03;;;1.90;;
7199;SDS011;3641;49.082;8.200;2022-09-27T10:53:28;5.18;;;2.20;;
7199;SDS011;3641;49.082;8.200;2022-09-27T10:55:56;4.82;;;1.90;;
7199;SDS011;3641;49.082;8.200;2022-09-27T10:58:24;5.07;;;1.63;;
7199;SDS011;3641;49.082;8.200;2022-09-27T11:00:53;4.68;;;1.50;;
7199;SDS011;3641;49.082;8.200;2022-09-27T11:03:21;3.70;;;1.60;;
7199;SDS011;3641;49.082;8.200;2022-09-27T11:05:53;4.22;;;1.70;;
7199;SDS011;3641;49.082;8.200;2022-09-27T11:08:27;2.78;;;1.30;;
7199;SDS011;3641;49.082;8.200;2022-09-27T11:10:59;3.67;;;1.33;;
7199;SDS011;3641;49.082;8.200;2022-09-27T11:13:32;4.65;;;1.52;;
7199;SDS011;3641;49.082;8.200;2022-09-27T11:16:09;1.65;;;1.00;;
7199;SDS011;3641;49.082;8.200;2022-09-27T11:18:48;1.45;;;1.00;;
7199;SDS011;3641;49.082;8.200;2022-09-27T11:21:25;2.70;;;0.93;;
7199;SDS011;3641;49.082;8.200;2022-09-27T11:24:08;2.30;;;0.95;;
7199;SDS011;3641;49.082;8.200;2022-09-27T11:26:50;2.13;;;1.00;;
7199;SDS011;3641;49.082;8.200;2022-09-27T11:29:27;2.38;;;0.80;;
7199;SDS011;3641;49.082;8.200;2022-09-27T11:32:05;3.33;;;1.05;;
7199;SDS011;3641;49.082;8.200;2022-09-27T11:37:35;2.88;;;0.80;;
7199;SDS011;3641;49.082;8.200;2022-09-27T11:40:14;1.00;;;0.60;;
7199;SDS011;3641;49.082;8.200;2022-09-27T11:45:52;3.25;;;1.15;;
7199;SDS011;3641;49.082;8.200;2022-09-27T11:48:26;1.67;;;0.63;;
7199;SDS011;3641;49.082;8.200;2022-09-27T11:51:11;3.53;;;0.75;;
7199;SDS011;3641;49.082;8.200;2022-09-27T11:53:54;2.25;;;0.70;;
7199;SDS011;3641;49.082;8.200;2022-09-27T11:56:33;2.47;;;0.68;;
7199;SDS011;3641;49.082;8.200;2022-09-27T11:59:21;1.75;;;0.63;;
7199;SDS011;3641;49.082;8.200;2022-09-27T12:02:00;2.67;;;0.77;;
7199;SDS011;3641;49.082;8.200;2022-09-27T12:04:38;1.85;;;0.70;;
7199;SDS011;3641;49.082;8.200;2022-09-27T12:07:17;3.30;;;0.80;;
7199;SDS011;3641;49.082;8.200;2022-09-27T12:09:54;3.13;;;0.88;;
7199;SDS011;3641;49.082;8.200;2022-09-27T12:12:28;2.70;;;0.80;;
7199;SDS011;3641;49.082;8.200;2022-09-27T12:14:59;1.63;;;0.82;;
7199;SDS011;3641;49.082;8.200;2022-09-27T12:17:29;1.63;;;0.73;;
7199;SDS011;3641;49.082;8.200;2022-09-27T12:20:01;3.20;;;0.82;;
7199;SDS011;3641;49.082;8.200;2022-09-27T12:22:31;3.55;;;0.90;;
7199;SDS011;3641;49.082;8.200;2022-09-27T12:25:00;4.00;;;0.90;;
7199;SDS011;3641;49.082;8.200;2022-09-27T12:27:33;2.75;;;1.00;;
7199;SDS011;3641;49.082;8.200;2022-09-27T12:30:02;4.82;;;1.00;;
7199;SDS011;3641;49.082;8.200;2022-09-27T12:32:31;3.33;;;0.70;;
7199;SDS011;3641;49.082;8.200;2022-09-27T12:35:05;4.53;;;1.00;;
7199;SDS011;3641;49.082;8.200;2022-09-27T12:37:41;2.67;;;1.00;;
7199;SDS011;3641;49.082;8.200;2022-09-27T12:40:14;2.42;;;0.95;;
7199;SDS011;3641;49.082;8.200;2022-09-27T12:42:46;2.47;;;0.80;;
7199;SDS011;3641;49.082;8.200;2022-09-27T12:45:19;3.97;;;0.90;;
7199;SDS011;3641;49.082;8.200;2022-09-27T12:48:01;1.73;;;0.90;;
7199;SDS011;3641;49.082;8.200;2022-09-27T12:50:36;2.08;;;1.02;;
7199;SDS011;3641;49.082;8.200;2022-09-27T12:53:07;2.33;;;1.10;;
7199;SDS011;3641;49.082;8.200;2022-09-27T12:55:43;3.97;;;1.13;;
7199;SDS011;3641;49.082;8.200;2022-09-27T12:58:41;4.40;;;1.30;;
7199;SDS011;3641;49.082;8.200;2022-09-27T13:01:30;5.78;;;1.25;;
7199;SDS011;3641;49.082;8.200;2022-09-27T13:07:13;3.42;;;1.10;;
7199;SDS011;3641;49.082;8.200;2022-09-27T13:10:04;2.50;;;1.00;;
7199;SDS011;3641;49.082;8.200;2022-09-27T13:12:46;2.22;;;1.05;;
7199;SDS011;3641;49.082;8.200;2022-09-27T13:15:16;1.33;;;0.68;;
7199;SDS011;3641;49.082;8.200;2022-09-27T13:17:48;2.13;;;0.88;;
7199;SDS011;3641;49.082;8.200;2022-09-27T13:26:22;0.95;;;0.60;;
7199;SDS011;3641;49.082;8.200;2022-09-27T13:29:19;1.83;;;0.63;;
7199;SDS011;3641;49.082;8.200;2022-09-27T13:32:02;2.03;;;1.02;;
7199;SDS011;3641;49.082;8.200;2022-09-27T13:34:43;1.92;;;0.93;;
7199;SDS011;3641;49.082;8.200;2022-09-27T13:37:22;2.45;;;0.75;;
7199;SDS011;3641;49.082;8.200;2022-09-27T13:42:54;7.35;;;0.88;;
7199;SDS011;3641;49.082;8.200;2022-09-27T13:45:30;1.30;;;0.60;;
7199;SDS011;3641;49.082;8.200;2022-09-27T13:48:05;3.08;;;0.90;;
7199;SDS011;3641;49.082;8.200;2022-09-27T13:50:36;2.97;;;0.82;;
7199;SDS011;3641;49.082;8.200;2022-09-27T13:53:16;1.15;;;0.80;;
7199;SDS011;3641;49.082;8.200;2022-09-27T13:55:48;1.83;;;0.90;;
7199;SDS011;3641;49.082;8.200;2022-09-27T14:01:19;3.63;;;0.75;;
7199;SDS011;3641;49.082;8.200;2022-09-27T14:03:54;4.22;;;1.00;;
7199;SDS011;3641;49.082;8.200;2022-09-27T14:06:25;2.05;;;0.80;;
7199;SDS011;3641;49.082;8.200;2022-09-27T14:08:55;2.90;;;0.60;;
7199;SDS011;3641;49.082;8.200;2022-09-27T14:11:24;2.28;;;0.80;;
7199;SDS011;3641;49.082;8.200;2022-09-27T14:13:53;1.52;;;0.90;;
7199;SDS011;3641;49.082;8.200;2022-09-27T14:16:21;1.00;;;0.57;;
7199;SDS011;3641;49.082;8.200;2022-09-27T14:18:48;1.83;;;0.70;;
7199;SDS011;3641;49.082;8.200;2022-09-27T14:21:20;1.13;;;0.60;;
7199;SDS011;3641;49.082;8.200;2022-09-27T14:23:52;2.63;;;0.80;;
7199;SDS011;3641;49.082;8.200;2022-09-27T14:26:20;1.00;;;0.68;;
7199;SDS011;3641;49.082;8.200;2022-09-27T14:28:48;1.20;;;0.60;;
7199;SDS011;3641;49.082;8.200;2022-09-27T14:31:15;1.17;;;0.70;;
7199;SDS011;3641;49.082;8.200;2022-09-27T14:33:44;0.73;;;0.60;;
7199;SDS011;3641;49.082;8.200;2022-09-27T14:36:15;2.80;;;0.70;;
7199;SDS011;3641;49.082;8.200;2022-09-27T14:39:13;3.97;;;0.82;;
7199;SDS011;3641;49.082;8.200;2022-09-27T14:41:44;1.55;;;0.75;;
7199;SDS011;3641;49.082;8.200;2022-09-27T14:44:13;2.10;;;1.08;;
7199;SDS011;3641;49.082;8.200;2022-09-27T14:46:41;3.22;;;0.80;;
7199;SDS011;3641;49.082;8.200;2022-09-27T14:49:11;0.80;;;0.50;;
7199;SDS011;3641;49.082;8.200;2022-09-27T14:51:50;2.80;;;0.55;;
7199;SDS011;3641;49.082;8.200;2022-09-27T14:54:21;2.42;;;0.82;;
7199;SDS011;3641;49.082;8.200;2022-09-27T14:56:50;1.35;;;0.80;;
7199;SDS011;3641;49.082;8.200;2022-09-27T14:59:20;1.52;;;0.68;;
7199;SDS011;3641;49.082;8.200;2022-09-27T15:01:52;3.83;;;1.30;;
7199;SDS011;3641;49.082;8.200;2022-09-27T15:04:19;1.75;;;0.70;;
7199;SDS011;3641;49.082;8.200;2022-09-27T15:06:49;2.38;;;0.68;;
7199;SDS011;3641;49.082;8.200;2022-09-27T15:09:16;0.88;;;0.73;;
7199;SDS011;3641;49.082;8.200;2022-09-27T15:11:44;1.63;;;0.80;;
7199;SDS011;3641;49.082;8.200;2022-09-27T15:14:16;2.83;;;0.88;;
7199;SDS011;3641;49.082;8.200;2022-09-27T15:16:45;2.88;;;1.20;;
7199;SDS011;3641;49.082;8.200;2022-09-27T15:19:13;1.92;;;0.80;;
7199;SDS011;3641;49.082;8.200;2022-09-27T15:21:43;2.28;;;1.00;;
7199;SDS011;3641;49.082;8.200;2022-09-27T15:27:03;4.63;;;0.93;;
7199;SDS011;3641;49.082;8.200;2022-09-27T15:29:38;2.83;;;0.90;;
7199;SDS011;3641;49.082;8.200;2022-09-27T15:32:05;5.13;;;0.95;;
7199;SDS011;3641;49.082;8.200;2022-09-27T15:34:34;3.13;;;1.15;;
7199;SDS011;3641;49.082;8.200;2022-09-27T15:37:01;3.70;;;0.95;;
7199;SDS011;3641;49.082;8.200;2022-09-27T15:39:30;3.03;;;0.93;;
7199;SDS011;3641;49.082;8.200;2022-09-27T15:42:00;3.80;;;0.95;;
7199;SDS011;3641;49.082;8.200;2022-09-27T15:44:37;2.47;;;0.80;;
7199;SDS011;3641;49.082;8.200;2022-09-27T15:52:58;4.78;;;0.93;;
7199;SDS011;3641;49.082;8.200;2022-09-27T15:55:27;1.80;;;0.80;;
7199;SDS011;3641;49.082;8.200;2022-09-27T15:57:59;2.42;;;0.90;;
7199;SDS011;3641;49.082;8.200;2022-09-27T16:00:27;2.17;;;0.95;;
7199;SDS011;3641;49.082;8.200;2022-09-27T16:02:54;2.92;;;0.98;;
7199;SDS011;3641;49.082;8.200;2022-09-27T16:05:21;6.45;;;1.40;;
7199;SDS011;3641;49.082;8.200;2022-09-27T16:07:48;3.08;;;1.55;;
7199;SDS011;3641;49.082;8.200;2022-09-27T16:10:15;5.47;;;1.67;;